sensor_id;sensor_type;location;lat;lon;timestamp;temperature;humidity
33881;DHT22;20172;47.530;10.256;2023-08-17T00:01:54;21.50;99.90
33881;DHT22;20172;47.530;10.256;2023-08-17T00:04:19;21.50;99.90
33881;DHT22;20172;47.530;10.256;2023-08-17T00:06:45;21.40;99.90
33881;DHT22;20172;47.530;10.256;2023-08-17T00:09:12;21.40;99.90
33881;DHT22;20172;47.530;10.256;2023-08-17T00:11:38;21.30;99.90
33881;DHT22;20172;47.530;10.256;2023-08-17T00:14:04;21.20;99.90
33881;DHT22;20172;47.530;10.256;2023-08-17T00:16:29;21.20;99.90
33881;DHT22;20172;47.530;10.256;2023-08-17T00:18:55;21.10;99.90
33881;DHT22;20172;47.530;10.256;2023-08-17T00:21:20;21.00;99.90
33881;DHT22;20172;47.530;10.256;2023-08-17T00:23:46;20.90;99.90
33881;DHT22;20172;47.530;10.256;2023-08-17T00:26:11;20.90;99.90
33881;DHT22;20172;47.530;10.256;2023-08-17T00:28:37;20.90;99.90
33881;DHT22;20172;47.530;10.256;2023-08-17T00:31:03;20.80;99.90
33881;DHT22;20172;47.530;10.256;2023-08-17T00:33:29;20.80;99.90
33881;DHT22;20172;47.530;10.256;2023-08-17T00:35:54;20.70;99.90
33881;DHT22;20172;47.530;10.256;2023-08-17T00:38:20;20.70;99.90
33881;DHT22;20172;47.530;10.256;2023-08-17T00:40:46;20.70;99.90
33881;DHT22;20172;47.530;10.256;2023-08-17T00:43:11;20.70;99.90
33881;DHT22;20172;47.530;10.256;2023-08-17T00:45:37;20.70;99.90
33881;DHT22;20172;47.530;10.256;2023-08-17T00:48:03;20.70;99.90
33881;DHT22;20172;47.530;10.256;2023-08-17T00:50:30;20.70;99.90
33881;DHT22;20172;47.530;10.256;2023-08-17T00:52:56;20.70;99.90
33881;DHT22;20172;47.530;10.256;2023-08-17T00:55:22;20.70;99.90
33881;DHT22;20172;47.530;10.256;2023-08-17T00:57:47;20.60;99.90
33881;DHT22;20172;47.530;10.256;2023-08-17T01:00:13;20.40;99.90
33881;DHT22;20172;47.530;10.256;2023-08-17T01:02:42;20.30;99.90
33881;DHT22;20172;47.530;10.256;2023-08-17T01:05:07;20.40;99.90
33881;DHT22;20172;47.530;10.256;2023-08-17T01:07:33;20.40;99.90
33881;DHT22;20172;47.530;10.256;2023-08-17T01:09:59;20.30;99.90
33881;DHT22;20172;47.530;10.256;2023-08-17T01:12:31;20.40;99.90
33881;DHT22;20172;47.530;10.256;2023-08-17T01:17:26;20.40;99.90
33881;DHT22;20172;47.530;10.256;2023-08-17T01:19:53;20.30;99.90
33881;DHT22;20172;47.530;10.256;2023-08-17T01:22:20;20.20;99.90
33881;DHT22;20172;47.530;10.256;2023-08-17T01:24:46;20.20;99.90
33881;DHT22;20172;47.530;10.256;2023-08-17T01:27:12;20.10;99.90
33881;DHT22;20172;47.530;10.256;2023-08-17T01:29:37;20.10;99.90
33881;DHT22;20172;47.530;10.256;2023-08-17T01:32:10;20.10;99.90
33881;DHT22;20172;47.530;10.256;2023-08-17T01:34:43;20.10;99.90
33881;DHT22;20172;47.530;10.256;2023-08-17T01:37:10;20.20;99.90
33881;DHT22;20172;47.530;10.256;2023-08-17T01:39:37;20.20;99.90
33881;DHT22;20172;47.530;10.256;2023-08-17T01:42:03;20.20;99.90
33881;DHT22;20172;47.530;10.256;2023-08-17T01:44:30;20.10;99.90
33881;DHT22;20172;47.530;10.256;2023-08-17T01:46:55;20.00;99.90
33881;DHT22;20172;47.530;10.256;2023-08-17T01:49:21;20.00;99.90
33881;DHT22;20172;47.530;10.256;2023-08-17T01:51:47;19.90;99.90
33881;DHT22;20172;47.530;10.256;2023-08-17T01:54:12;19.80;99.90
33881;DHT22;20172;47.530;10.256;2023-08-17T01:56:38;19.70;99.90
33881;DHT22;20172;47.530;10.256;2023-08-17T01:59:03;19.70;99.90
33881;DHT22;20172;47.530;10.256;2023-08-17T02:01:29;19.70;99.90
33881;DHT22;20172;47.530;10.256;2023-08-17T02:03:54;19.70;99.90
33881;DHT22;20172;47.530;10.256;2023-08-17T02:06:20;19.60;99.90
33881;DHT22;20172;47.530;10.256;2023-08-17T02:08:46;19.60;99.90
33881;DHT22;20172;47.530;10.256;2023-08-17T02:11:11;19.50;99.90
33881;DHT22;20172;47.530;10.256;2023-08-17T02:13:37;19.60;99.90
33881;DHT22;20172;47.530;10.256;2023-08-17T02:16:03;19.60;99.90
33881;DHT22;20172;47.530;10.256;2023-08-17T02:18:29;19.70;99.90
33881;DHT22;20172;47.530;10.256;2023-08-17T02:20:56;19.70;99.90
33881;DHT22;20172;47.530;10.256;2023-08-17T02:23:22;19.70;99.90
33881;DHT22;20172;47.530;10.256;2023-08-17T02:25:47;19.70;99.90
33881;DHT22;20172;47.530;10.256;2023-08-17T02:28:13;19.60;99.90
33881;DHT22;20172;47.530;10.256;2023-08-17T02:30:38;19.50;99.90
33881;DHT22;20172;47.530;10.256;2023-08-17T02:33:04;19.50;99.90
33881;DHT22;20172;47.530;10.256;2023-08-17T02:35:30;19.50;99.90
33881;DHT22;20172;47.530;10.256;2023-08-17T02:37:55;19.50;99.90
33881;DHT22;20172;47.530;10.256;2023-08-17T02:40:21;19.60;99.90
33881;DHT22;20172;47.530;10.256;2023-08-17T02:42:46;19.60;99.90
33881;DHT22;20172;47.530;10.256;2023-08-17T02:45:12;19.70;99.90
33881;DHT22;20172;47.530;10.256;2023-08-17T02:47:38;19.60;99.90
33881;DHT22;20172;47.530;10.256;2023-08-17T02:50:03;19.50;99.90
33881;DHT22;20172;47.530;10.256;2023-08-17T02:52:29;19.50;99.90
33881;DHT22;20172;47.530;10.256;2023-08-17T02:54:55;19.30;99.90
33881;DHT22;20172;47.530;10.256;2023-08-17T02:57:20;19.20;99.90
33881;DHT22;20172;47.530;10.256;2023-08-17T02:59:46;19.10;99.90
33881;DHT22;20172;47.530;10.256;2023-08-17T03:02:11;19.10;99.90
33881;DHT22;20172;47.530;10.256;2023-08-17T03:04:38;19.20;99.90
33881;DHT22;20172;47.530;10.256;2023-08-17T03:07:04;19.20;99.90
33881;DHT22;20172;47.530;10.256;2023-08-17T03:09:29;19.20;99.90
33881;DHT22;20172;47.530;10.256;2023-08-17T03:11:55;19.20;99.90
33881;DHT22;20172;47.530;10.256;2023-08-17T03:14:20;19.10;99.90
33881;DHT22;20172;47.530;10.256;2023-08-17T03:16:46;18.90;99.90
33881;DHT22;20172;47.530;10.256;2023-08-17T03:19:12;18.80;99.90
33881;DHT22;20172;47.530;10.256;2023-08-17T03:21:37;18.70;99.90
33881;DHT22;20172;47.530;10.256;2023-08-17T03:24:03;18.70;99.90
33881;DHT22;20172;47.530;10.256;2023-08-17T03:26:29;18.60;99.90
33881;DHT22;20172;47.530;10.256;2023-08-17T03:28:54;18.60;99.90
33881;DHT22;20172;47.530;10.256;2023-08-17T03:31:20;18.70;99.90
33881;DHT22;20172;47.530;10.256;2023-08-17T03:33:46;18.60;99.90
33881;DHT22;20172;47.530;10.256;2023-08-17T03:36:12;18.60;99.90
33881;DHT22;20172;47.530;10.256;2023-08-17T03:38:38;18.50;99.90
33881;DHT22;20172;47.530;10.256;2023-08-17T03:41:05;18.50;99.90
33881;DHT22;20172;47.530;10.256;2023-08-17T03:43:30;18.40;99.90
33881;DHT22;20172;47.530;10.256;2023-08-17T03:45:56;18.50;99.90
33881;DHT22;20172;47.530;10.256;2023-08-17T03:48:21;18.50;99.90
33881;DHT22;20172;47.530;10.256;2023-08-17T03:50:51;18.60;99.90
33881;DHT22;20172;47.530;10.256;2023-08-17T03:53:17;18.60;99.90
33881;DHT22;20172;47.530;10.256;2023-08-17T03:55:45;18.70;99.90
33881;DHT22;20172;47.530;10.256;2023-08-17T03:58:10;18.70;99.90
33881;DHT22;20172;47.530;10.256;2023-08-17T04:00:36;18.70;99.90
33881;DHT22;20172;47.530;10.256;2023-08-17T04:03:01;18.60;99.90
33881;DHT22;20172;47.530;10.256;2023-08-17T04:05:27;18.50;99.90
33881;DHT22;20172;47.530;10.256;2023-08-17T04:07:52;18.40;99.90
33881;DHT22;20172;47.530;10.256;2023-08-17T04:10:18;18.40;99.90
33881;DHT22;20172;47.530;10.256;2023-08-17T04:12:44;18.30;99.90
33881;DHT22;20172;47.530;10.256;2023-08-17T04:15:09;18.20;99.90
33881;DHT22;20172;47.530;10.256;2023-08-17T04:17:35;18.20;99.90
33881;DHT22;20172;47.530;10.256;2023-08-17T04:20:00;18.10;99.90
33881;DHT22;20172;47.530;10.256;2023-08-17T04:22:26;18.00;99.90
33881;DHT22;20172;47.530;10.256;2023-08-17T04:24:51;18.00;99.90
33881;DHT22;20172;47.530;10.256;2023-08-17T04:27:17;18.00;99.90
33881;DHT22;20172;47.530;10.256;2023-08-17T04:29:43;18.00;99.90
33881;DHT22;20172;47.530;10.256;2023-08-17T04:32:13;18.10;99.90
33881;DHT22;20172;47.530;10.256;2023-08-17T04:34:39;18.20;99.90
33881;DHT22;20172;47.530;10.256;2023-08-17T04:37:06;18.30;99.90
33881;DHT22;20172;47.530;10.256;2023-08-17T04:39:31;18.30;99.90
33881;DHT22;20172;47.530;10.256;2023-08-17T04:41:58;18.30;99.90
33881;DHT22;20172;47.530;10.256;2023-08-17T04:44:23;18.20;99.90
33881;DHT22;20172;47.530;10.256;2023-08-17T04:46:49;18.10;99.90
33881;DHT22;20172;47.530;10.256;2023-08-17T04:49:14;18.00;99.90
33881;DHT22;20172;47.530;10.256;2023-08-17T04:51:40;18.00;99.90
33881;DHT22;20172;47.530;10.256;2023-08-17T04:54:05;17.90;99.90
33881;DHT22;20172;47.530;10.256;2023-08-17T04:56:31;17.80;99.90
33881;DHT22;20172;47.530;10.256;2023-08-17T04:58:56;17.80;99.90
33881;DHT22;20172;47.530;10.256;2023-08-17T05:01:22;17.80;99.90
33881;DHT22;20172;47.530;10.256;2023-08-17T05:03:48;17.80;99.90
33881;DHT22;20172;47.530;10.256;2023-08-17T05:06:13;18.00;99.90
33881;DHT22;20172;47.530;10.256;2023-08-17T05:08:39;18.00;99.90
33881;DHT22;20172;47.530;10.256;2023-08-17T05:11:04;18.10;99.90
33881;DHT22;20172;47.530;10.256;2023-08-17T05:13:30;18.20;99.90
33881;DHT22;20172;47.530;10.256;2023-08-17T05:15:55;18.20;99.90
33881;DHT22;20172;47.530;10.256;2023-08-17T05:18:21;18.20;99.90
33881;DHT22;20172;47.530;10.256;2023-08-17T05:20:47;18.20;99.90
33881;DHT22;20172;47.530;10.256;2023-08-17T05:23:12;18.30;99.90
33881;DHT22;20172;47.530;10.256;2023-08-17T05:25:38;18.30;99.90
33881;DHT22;20172;47.530;10.256;2023-08-17T05:28:03;18.40;99.90
33881;DHT22;20172;47.530;10.256;2023-08-17T05:30:29;18.50;99.90
33881;DHT22;20172;47.530;10.256;2023-08-17T05:32:54;18.60;99.90
33881;DHT22;20172;47.530;10.256;2023-08-17T05:35:20;18.70;99.90
33881;DHT22;20172;47.530;10.256;2023-08-17T05:37:45;18.80;99.90
33881;DHT22;20172;47.530;10.256;2023-08-17T05:40:11;18.80;99.90
33881;DHT22;20172;47.530;10.256;2023-08-17T05:42:37;18.80;99.90
33881;DHT22;20172;47.530;10.256;2023-08-17T05:45:02;18.70;99.90
33881;DHT22;20172;47.530;10.256;2023-08-17T05:47:28;18.70;99.90
33881;DHT22;20172;47.530;10.256;2023-08-17T05:49:53;18.80;99.90
33881;DHT22;20172;47.530;10.256;2023-08-17T05:52:19;19.00;99.90
33881;DHT22;20172;47.530;10.256;2023-08-17T05:54:45;19.10;99.90
33881;DHT22;20172;47.530;10.256;2023-08-17T05:57:10;19.20;99.90
33881;DHT22;20172;47.530;10.256;2023-08-17T05:59:36;19.40;99.90
33881;DHT22;20172;47.530;10.256;2023-08-17T06:02:01;19.60;99.90
33881;DHT22;20172;47.530;10.256;2023-08-17T06:04:27;19.70;99.90
33881;DHT22;20172;47.530;10.256;2023-08-17T06:06:52;19.90;99.90
33881;DHT22;20172;47.530;10.256;2023-08-17T06:09:18;20.00;99.90
33881;DHT22;20172;47.530;10.256;2023-08-17T06:11:43;20.00;99.90
33881;DHT22;20172;47.530;10.256;2023-08-17T06:14:09;20.10;99.90
33881;DHT22;20172;47.530;10.256;2023-08-17T06:16:34;20.20;99.90
33881;DHT22;20172;47.530;10.256;2023-08-17T06:19:01;20.40;99.90
33881;DHT22;20172;47.530;10.256;2023-08-17T06:21:28;20.50;99.90
33881;DHT22;20172;47.530;10.256;2023-08-17T06:23:53;20.60;99.90
33881;DHT22;20172;47.530;10.256;2023-08-17T06:26:19;20.60;99.90
33881;DHT22;20172;47.530;10.256;2023-08-17T06:28:44;20.60;99.90
33881;DHT22;20172;47.530;10.256;2023-08-17T06:31:09;20.60;99.90
33881;DHT22;20172;47.530;10.256;2023-08-17T06:33:35;20.70;99.90
33881;DHT22;20172;47.530;10.256;2023-08-17T06:36:00;20.80;99.90
33881;DHT22;20172;47.530;10.256;2023-08-17T06:38:26;20.90;99.90
33881;DHT22;20172;47.530;10.256;2023-08-17T06:40:52;21.10;99.90
33881;DHT22;20172;47.530;10.256;2023-08-17T06:43:18;21.30;99.90
33881;DHT22;20172;47.530;10.256;2023-08-17T06:45:43;21.50;99.90
33881;DHT22;20172;47.530;10.256;2023-08-17T06:48:09;21.60;99.90
33881;DHT22;20172;47.530;10.256;2023-08-17T06:50:34;21.70;99.90
33881;DHT22;20172;47.530;10.256;2023-08-17T06:53:00;21.80;99.90
33881;DHT22;20172;47.530;10.256;2023-08-17T06:55:26;21.80;99.90
33881;DHT22;20172;47.530;10.256;2023-08-17T06:57:52;21.80;99.90
33881;DHT22;20172;47.530;10.256;2023-08-17T07:00:18;21.90;99.90
33881;DHT22;20172;47.530;10.256;2023-08-17T07:02:46;22.00;99.90
33881;DHT22;20172;47.530;10.256;2023-08-17T07:05:13;22.20;99.90
33881;DHT22;20172;47.530;10.256;2023-08-17T07:07:39;22.30;99.90
33881;DHT22;20172;47.530;10.256;2023-08-17T07:10:04;22.30;99.90
33881;DHT22;20172;47.530;10.256;2023-08-17T07:12:30;22.50;99.90
33881;DHT22;20172;47.530;10.256;2023-08-17T07:14:55;22.50;99.90
33881;DHT22;20172;47.530;10.256;2023-08-17T07:17:21;22.70;99.90
33881;DHT22;20172;47.530;10.256;2023-08-17T07:19:46;22.80;99.90
33881;DHT22;20172;47.530;10.256;2023-08-17T07:22:12;22.80;99.90
33881;DHT22;20172;47.530;10.256;2023-08-17T07:24:37;22.80;99.90
33881;DHT22;20172;47.530;10.256;2023-08-17T07:27:03;22.90;99.90
33881;DHT22;20172;47.530;10.256;2023-08-17T07:29:29;23.00;99.90
33881;DHT22;20172;47.530;10.256;2023-08-17T07:31:54;23.10;99.90
33881;DHT22;20172;47.530;10.256;2023-08-17T07:34:23;23.20;99.90
33881;DHT22;20172;47.530;10.256;2023-08-17T07:36:49;23.30;99.90
33881;DHT22;20172;47.530;10.256;2023-08-17T07:39:14;23.50;99.90
33881;DHT22;20172;47.530;10.256;2023-08-17T07:41:40;23.60;99.90
33881;DHT22;20172;47.530;10.256;2023-08-17T07:44:05;23.70;99.90
33881;DHT22;20172;47.530;10.256;2023-08-17T07:46:31;23.80;99.90
33881;DHT22;20172;47.530;10.256;2023-08-17T07:48:56;23.80;99.90
33881;DHT22;20172;47.530;10.256;2023-08-17T07:51:22;23.70;99.90
33881;DHT22;20172;47.530;10.256;2023-08-17T07:53:47;23.70;99.90
33881;DHT22;20172;47.530;10.256;2023-08-17T07:56:13;23.80;99.90
33881;DHT22;20172;47.530;10.256;2023-08-17T07:58:39;23.80;99.90
33881;DHT22;20172;47.530;10.256;2023-08-17T08:01:04;23.90;99.90
33881;DHT22;20172;47.530;10.256;2023-08-17T08:03:30;24.00;99.90
33881;DHT22;20172;47.530;10.256;2023-08-17T08:05:56;24.10;99.90
33881;DHT22;20172;47.530;10.256;2023-08-17T08:08:21;24.20;99.90
33881;DHT22;20172;47.530;10.256;2023-08-17T08:10:47;24.30;99.90
33881;DHT22;20172;47.530;10.256;2023-08-17T08:13:12;24.40;99.90
33881;DHT22;20172;47.530;10.256;2023-08-17T08:15:38;24.60;99.90
33881;DHT22;20172;47.530;10.256;2023-08-17T08:18:04;24.80;99.90
33881;DHT22;20172;47.530;10.256;2023-08-17T08:20:29;24.90;99.90
33881;DHT22;20172;47.530;10.256;2023-08-17T08:22:55;25.10;99.90
33881;DHT22;20172;47.530;10.256;2023-08-17T08:25:20;25.20;99.90
33881;DHT22;20172;47.530;10.256;2023-08-17T08:27:46;25.40;99.90
33881;DHT22;20172;47.530;10.256;2023-08-17T08:30:11;25.50;99.90
33881;DHT22;20172;47.530;10.256;2023-08-17T08:32:37;25.70;99.90
33881;DHT22;20172;47.530;10.256;2023-08-17T08:35:02;25.80;99.90
33881;DHT22;20172;47.530;10.256;2023-08-17T08:37:28;26.00;99.90
33881;DHT22;20172;47.530;10.256;2023-08-17T08:39:54;26.20;99.90
33881;DHT22;20172;47.530;10.256;2023-08-17T08:42:20;26.40;99.90
33881;DHT22;20172;47.530;10.256;2023-08-17T08:44:45;26.60;99.90
33881;DHT22;20172;47.530;10.256;2023-08-17T08:47:11;26.70;99.90
33881;DHT22;20172;47.530;10.256;2023-08-17T08:49:38;26.90;99.90
33881;DHT22;20172;47.530;10.256;2023-08-17T08:52:04;27.00;99.90
33881;DHT22;20172;47.530;10.256;2023-08-17T08:54:32;27.20;99.90
33881;DHT22;20172;47.530;10.256;2023-08-17T08:56:59;27.40;99.90
33881;DHT22;20172;47.530;10.256;2023-08-17T08:59:26;27.60;99.90
33881;DHT22;20172;47.530;10.256;2023-08-17T09:01:52;27.70;99.20
33881;DHT22;20172;47.530;10.256;2023-08-17T09:04:18;27.80;99.20
33881;DHT22;20172;47.530;10.256;2023-08-17T09:06:43;27.80;99.30
33881;DHT22;20172;47.530;10.256;2023-08-17T09:09:09;27.90;99.90
33881;DHT22;20172;47.530;10.256;2023-08-17T09:11:36;28.20;99.90
33881;DHT22;20172;47.530;10.256;2023-08-17T09:14:01;28.30;99.90
33881;DHT22;20172;47.530;10.256;2023-08-17T09:16:27;28.50;99.90
33881;DHT22;20172;47.530;10.256;2023-08-17T09:18:53;28.70;99.90
33881;DHT22;20172;47.530;10.256;2023-08-17T09:21:22;28.80;99.00
33881;DHT22;20172;47.530;10.256;2023-08-17T09:23:52;29.00;99.00
33881;DHT22;20172;47.530;10.256;2023-08-17T09:26:19;29.10;99.20
33881;DHT22;20172;47.530;10.256;2023-08-17T09:28:44;29.30;99.30
33881;DHT22;20172;47.530;10.256;2023-08-17T09:31:10;29.40;98.50
33881;DHT22;20172;47.530;10.256;2023-08-17T09:33:36;29.50;98.80
33881;DHT22;20172;47.530;10.256;2023-08-17T09:36:02;29.50;98.50
33881;DHT22;20172;47.530;10.256;2023-08-17T09:38:28;29.50;98.40
33881;DHT22;20172;47.530;10.256;2023-08-17T09:40:54;29.50;98.50
33881;DHT22;20172;47.530;10.256;2023-08-17T09:43:19;29.60;98.60
33881;DHT22;20172;47.530;10.256;2023-08-17T09:45:49;29.60;98.40
33881;DHT22;20172;47.530;10.256;2023-08-17T09:48:16;29.60;98.40
33881;DHT22;20172;47.530;10.256;2023-08-17T09:50:43;29.60;98.60
33881;DHT22;20172;47.530;10.256;2023-08-17T09:53:12;29.70;99.00
33881;DHT22;20172;47.530;10.256;2023-08-17T09:55:38;29.70;99.00
33881;DHT22;20172;47.530;10.256;2023-08-17T09:58:04;29.70;99.30
33881;DHT22;20172;47.530;10.256;2023-08-17T10:00:30;29.80;99.40
33881;DHT22;20172;47.530;10.256;2023-08-17T10:02:56;29.80;99.10
33881;DHT22;20172;47.530;10.256;2023-08-17T10:05:22;29.90;98.40
33881;DHT22;20172;47.530;10.256;2023-08-17T10:07:49;29.90;99.70
33881;DHT22;20172;47.530;10.256;2023-08-17T10:10:18;29.90;99.90
33881;DHT22;20172;47.530;10.256;2023-08-17T10:12:50;29.90;99.70
33881;DHT22;20172;47.530;10.256;2023-08-17T10:15:18;29.90;98.60
33881;DHT22;20172;47.530;10.256;2023-08-17T10:18:02;29.90;98.30
33881;DHT22;20172;47.530;10.256;2023-08-17T10:20:31;29.90;98.00
33881;DHT22;20172;47.530;10.256;2023-08-17T10:23:15;29.90;98.10
33881;DHT22;20172;47.530;10.256;2023-08-17T10:25:42;29.90;98.20
33881;DHT22;20172;47.530;10.256;2023-08-17T10:28:08;29.80;97.60
33881;DHT22;20172;47.530;10.256;2023-08-17T10:30:34;29.80;97.50
33881;DHT22;20172;47.530;10.256;2023-08-17T10:33:00;29.80;98.00
33881;DHT22;20172;47.530;10.256;2023-08-17T10:35:26;29.90;97.60
33881;DHT22;20172;47.530;10.256;2023-08-17T10:37:52;30.00;97.80
33881;DHT22;20172;47.530;10.256;2023-08-17T10:40:24;30.30;98.50
33881;DHT22;20172;47.530;10.256;2023-08-17T10:42:53;30.60;99.30
33881;DHT22;20172;47.530;10.256;2023-08-17T10:47:47;30.90;97.60
33881;DHT22;20172;47.530;10.256;2023-08-17T10:50:22;30.90;97.70
33881;DHT22;20172;47.530;10.256;2023-08-17T10:52:48;31.00;97.90
33881;DHT22;20172;47.530;10.256;2023-08-17T10:55:14;31.20;98.10
33881;DHT22;20172;47.530;10.256;2023-08-17T10:57:43;31.30;98.80
33881;DHT22;20172;47.530;10.256;2023-08-17T11:05:36;31.60;98.40
33881;DHT22;20172;47.530;10.256;2023-08-17T11:08:05;31.60;97.30
33881;DHT22;20172;47.530;10.256;2023-08-17T11:10:31;31.80;97.70
33881;DHT22;20172;47.530;10.256;2023-08-17T11:12:57;31.90;98.40
33881;DHT22;20172;47.530;10.256;2023-08-17T11:15:36;32.10;98.50
33881;DHT22;20172;47.530;10.256;2023-08-17T11:18:03;32.20;98.90
33881;DHT22;20172;47.530;10.256;2023-08-17T11:20:29;32.40;98.00
33881;DHT22;20172;47.530;10.256;2023-08-17T11:22:54;32.60;98.60
33881;DHT22;20172;47.530;10.256;2023-08-17T11:25:20;32.70;97.50
33881;DHT22;20172;47.530;10.256;2023-08-17T11:27:46;32.90;96.60
33881;DHT22;20172;47.530;10.256;2023-08-17T11:30:12;33.00;96.90
33881;DHT22;20172;47.530;10.256;2023-08-17T11:32:38;33.10;97.10
33881;DHT22;20172;47.530;10.256;2023-08-17T11:35:03;33.20;96.40
33881;DHT22;20172;47.530;10.256;2023-08-17T11:37:29;33.20;95.40
33881;DHT22;20172;47.530;10.256;2023-08-17T11:39:54;33.10;95.40
33881;DHT22;20172;47.530;10.256;2023-08-17T11:42:20;33.20;95.30
33881;DHT22;20172;47.530;10.256;2023-08-17T11:44:45;33.20;95.10
33881;DHT22;20172;47.530;10.256;2023-08-17T11:47:11;33.40;94.40
33881;DHT22;20172;47.530;10.256;2023-08-17T11:49:37;33.60;93.80
33881;DHT22;20172;47.530;10.256;2023-08-17T11:52:02;33.70;93.90
33881;DHT22;20172;47.530;10.256;2023-08-17T11:54:28;33.80;93.10
33881;DHT22;20172;47.530;10.256;2023-08-17T11:56:57;33.90;92.90
33881;DHT22;20172;47.530;10.256;2023-08-17T11:59:23;34.00;91.50
33881;DHT22;20172;47.530;10.256;2023-08-17T12:01:49;34.00;91.70
33881;DHT22;20172;47.530;10.256;2023-08-17T12:04:14;34.00;92.00
33881;DHT22;20172;47.530;10.256;2023-08-17T12:06:44;34.20;91.40
33881;DHT22;20172;47.530;10.256;2023-08-17T12:09:10;34.20;91.20
33881;DHT22;20172;47.530;10.256;2023-08-17T12:11:38;34.20;91.80
33881;DHT22;20172;47.530;10.256;2023-08-17T12:14:12;34.20;92.30
33881;DHT22;20172;47.530;10.256;2023-08-17T12:16:47;34.30;92.90
33881;DHT22;20172;47.530;10.256;2023-08-17T12:19:15;34.30;92.50
33881;DHT22;20172;47.530;10.256;2023-08-17T12:21:45;34.10;92.40
33881;DHT22;20172;47.530;10.256;2023-08-17T12:24:10;33.80;91.90
33881;DHT22;20172;47.530;10.256;2023-08-17T12:26:46;33.30;91.40
33881;DHT22;20172;47.530;10.256;2023-08-17T12:29:11;32.80;91.80
33881;DHT22;20172;47.530;10.256;2023-08-17T12:31:37;32.40;93.00
33881;DHT22;20172;47.530;10.256;2023-08-17T12:34:03;32.10;93.80
33881;DHT22;20172;47.530;10.256;2023-08-17T12:36:31;31.70;94.20
33881;DHT22;20172;47.530;10.256;2023-08-17T12:38:59;31.50;94.60
33881;DHT22;20172;47.530;10.256;2023-08-17T12:41:24;31.30;95.00
33881;DHT22;20172;47.530;10.256;2023-08-17T12:43:50;31.10;95.20
33881;DHT22;20172;47.530;10.256;2023-08-17T12:46:16;31.00;95.70
33881;DHT22;20172;47.530;10.256;2023-08-17T12:48:41;30.90;96.30
33881;DHT22;20172;47.530;10.256;2023-08-17T12:51:07;30.70;97.10
33881;DHT22;20172;47.530;10.256;2023-08-17T12:53:32;30.60;97.10
33881;DHT22;20172;47.530;10.256;2023-08-17T12:55:58;30.50;97.40
33881;DHT22;20172;47.530;10.256;2023-08-17T12:58:23;30.40;97.50
33881;DHT22;20172;47.530;10.256;2023-08-17T13:00:49;30.40;97.50
33881;DHT22;20172;47.530;10.256;2023-08-17T13:03:16;30.30;97.40
33881;DHT22;20172;47.530;10.256;2023-08-17T13:05:42;30.20;97.00
33881;DHT22;20172;47.530;10.256;2023-08-17T13:08:08;29.80;97.50
33881;DHT22;20172;47.530;10.256;2023-08-17T13:10:34;29.40;97.20
33881;DHT22;20172;47.530;10.256;2023-08-17T13:12:59;28.90;96.70
33881;DHT22;20172;47.530;10.256;2023-08-17T13:15:25;28.50;97.20
33881;DHT22;20172;47.530;10.256;2023-08-17T13:17:51;28.00;98.10
33881;DHT22;20172;47.530;10.256;2023-08-17T13:20:16;27.60;98.70
33881;DHT22;20172;47.530;10.256;2023-08-17T13:22:42;27.10;99.50
33881;DHT22;20172;47.530;10.256;2023-08-17T13:25:07;26.70;99.90
33881;DHT22;20172;47.530;10.256;2023-08-17T13:27:33;26.40;99.90
33881;DHT22;20172;47.530;10.256;2023-08-17T13:29:59;26.30;99.90
33881;DHT22;20172;47.530;10.256;2023-08-17T13:32:24;26.10;99.90
33881;DHT22;20172;47.530;10.256;2023-08-17T13:34:50;25.90;99.90
33881;DHT22;20172;47.530;10.256;2023-08-17T13:37:16;25.60;99.90
33881;DHT22;20172;47.530;10.256;2023-08-17T13:39:42;25.30;99.90
33881;DHT22;20172;47.530;10.256;2023-08-17T13:42:07;25.00;99.90
33881;DHT22;20172;47.530;10.256;2023-08-17T13:44:33;24.90;99.90
33881;DHT22;20172;47.530;10.256;2023-08-17T13:46:59;24.90;99.90
33881;DHT22;20172;47.530;10.256;2023-08-17T13:49:24;25.00;99.90
33881;DHT22;20172;47.530;10.256;2023-08-17T13:51:50;25.00;99.90
33881;DHT22;20172;47.530;10.256;2023-08-17T13:54:15;25.10;99.90
33881;DHT22;20172;47.530;10.256;2023-08-17T13:56:41;25.20;99.90
33881;DHT22;20172;47.530;10.256;2023-08-17T13:59:06;25.20;99.90
33881;DHT22;20172;47.530;10.256;2023-08-17T14:01:32;25.20;99.90
33881;DHT22;20172;47.530;10.256;2023-08-17T14:03:57;25.30;99.90
33881;DHT22;20172;47.530;10.256;2023-08-17T14:06:23;25.40;99.90
33881;DHT22;20172;47.530;10.256;2023-08-17T14:08:49;25.60;99.90
33881;DHT22;20172;47.530;10.256;2023-08-17T14:11:14;25.80;99.90
33881;DHT22;20172;47.530;10.256;2023-08-17T14:13:40;26.00;99.90
33881;DHT22;20172;47.530;10.256;2023-08-17T14:16:05;26.20;99.90
33881;DHT22;20172;47.530;10.256;2023-08-17T14:18:31;26.30;99.90
33881;DHT22;20172;47.530;10.256;2023-08-17T14:20:56;26.50;99.90
33881;DHT22;20172;47.530;10.256;2023-08-17T14:23:22;26.60;99.90
33881;DHT22;20172;47.530;10.256;2023-08-17T14:25:47;26.80;99.90
33881;DHT22;20172;47.530;10.256;2023-08-17T14:28:13;26.90;99.90
33881;DHT22;20172;47.530;10.256;2023-08-17T14:30:38;26.90;99.90
33881;DHT22;20172;47.530;10.256;2023-08-17T14:33:04;27.00;99.90
33881;DHT22;20172;47.530;10.256;2023-08-17T14:35:29;27.00;99.90
33881;DHT22;20172;47.530;10.256;2023-08-17T14:37:55;27.10;99.90
33881;DHT22;20172;47.530;10.256;2023-08-17T14:40:23;27.20;99.90
33881;DHT22;20172;47.530;10.256;2023-08-17T14:42:48;27.10;99.90
33881;DHT22;20172;47.530;10.256;2023-08-17T14:45:14;27.00;99.90
33881;DHT22;20172;47.530;10.256;2023-08-17T14:47:39;26.80;99.90
33881;DHT22;20172;47.530;10.256;2023-08-17T14:50:05;26.60;99.90
33881;DHT22;20172;47.530;10.256;2023-08-17T14:52:31;26.40;99.90
33881;DHT22;20172;47.530;10.256;2023-08-17T14:54:57;26.30;99.90
33881;DHT22;20172;47.530;10.256;2023-08-17T14:57:22;26.10;99.90
33881;DHT22;20172;47.530;10.256;2023-08-17T14:59:48;26.00;99.90
33881;DHT22;20172;47.530;10.256;2023-08-17T15:02:13;25.80;99.90
33881;DHT22;20172;47.530;10.256;2023-08-17T15:04:39;25.70;99.90
33881;DHT22;20172;47.530;10.256;2023-08-17T15:07:05;25.60;99.90
33881;DHT22;20172;47.530;10.256;2023-08-17T15:09:36;25.50;99.90
33881;DHT22;20172;47.530;10.256;2023-08-17T15:12:02;25.40;99.90
33881;DHT22;20172;47.530;10.256;2023-08-17T15:14:27;25.20;99.90
33881;DHT22;20172;47.530;10.256;2023-08-17T15:16:53;25.00;99.90
33881;DHT22;20172;47.530;10.256;2023-08-17T15:19:18;24.80;99.90